createdAt,value
2019-04-23T00:00:56.326Z,2.87
2019-04-23T00:03:18.846Z,2.70
2019-04-23T00:06:00.077Z,2.50
2019-04-23T00:08:26.057Z,2.60
2019-04-23T00:10:58.884Z,3.00
2019-04-23T00:13:29.813Z,2.10
2019-04-23T00:16:03.052Z,2.60
2019-04-23T00:18:37.366Z,2.23
2019-04-23T00:21:11.713Z,2.20
2019-04-23T00:23:38.481Z,2.60
2019-04-23T00:26:19.869Z,2.97
2019-04-23T00:31:13.411Z,2.57
2019-04-23T00:33:36.130Z,2.33
2019-04-23T00:36:10.365Z,2.53
2019-04-23T00:38:38.667Z,2.97
2019-04-23T00:41:09.389Z,2.70
2019-04-23T00:43:43.369Z,3.10
2019-04-23T00:46:06.564Z,16.30
2019-04-23T00:48:42.768Z,173.17
2019-04-23T00:51:07.823Z,229.60
2019-04-23T00:53:37.045Z,212.43
2019-04-23T00:56:25.264Z,156.00
2019-04-23T00:58:44.089Z,94.17
2019-04-23T01:01:11.315Z,48.07
2019-04-23T01:03:45.384Z,33.87
2019-04-23T01:06:12.943Z,18.83
2019-04-23T01:08:49.703Z,14.50
2019-04-23T01:11:20.437Z,14.83
2019-04-23T01:16:15.266Z,6.87
2019-04-23T01:18:51.510Z,5.67
2019-04-23T01:21:03.322Z,4.20
2019-04-23T01:23:44.549Z,3.17
2019-04-23T01:26:31.563Z,3.00
2019-04-23T01:29:09.194Z,2.50
2019-04-23T01:31:39.471Z,2.50
2019-04-23T01:34:07.954Z,2.47
2019-04-23T01:36:32.545Z,2.50
2019-04-23T01:41:44.498Z,2.70
2019-04-23T01:44:05.267Z,2.47
2019-04-23T01:46:43.136Z,2.60
2019-04-23T01:49:30.915Z,2.90
2019-04-23T01:54:09.529Z,2.40
2019-04-23T01:56:38.597Z,2.10
2019-04-23T01:59:16.664Z,2.30
2019-04-23T02:01:46.280Z,2.43
2019-04-23T02:04:20.167Z,2.50
2019-04-23T02:06:45.517Z,2.30
2019-04-23T02:09:13.794Z,2.20
2019-04-23T02:11:45.498Z,2.70
2019-04-23T02:14:16.377Z,2.40
2019-04-23T02:16:47.824Z,2.50
2019-04-23T02:19:17.053Z,2.27
2019-04-23T02:22:06.742Z,2.30
2019-04-23T02:24:45.045Z,2.50
2019-04-23T02:27:05.459Z,2.50
2019-04-23T02:29:55.991Z,2.60
2019-04-23T02:32:09.386Z,2.60
2019-04-23T02:34:52.412Z,2.67
2019-04-23T02:37:24.367Z,2.50
2019-04-23T02:40:08.637Z,2.20
2019-04-23T02:44:45.503Z,3.00
2019-04-23T02:49:54.829Z,2.67
2019-04-23T02:57:18.641Z,2.70
2019-04-23T03:00:08.067Z,2.83
2019-04-23T03:04:57.733Z,2.83
2019-04-23T03:09:56.592Z,2.80
2019-04-23T03:12:37.806Z,3.03
2019-04-23T03:15:00.679Z,3.90
2019-04-23T03:17:26.395Z,3.53
2019-04-23T03:25:46.022Z,2.70
2019-04-23T03:28:21.245Z,2.37
2019-04-23T03:32:31.903Z,2.60
2019-04-23T03:38:37.527Z,4.40
2019-04-23T03:41:10.710Z,4.27
2019-04-23T03:43:33.275Z,45.03
2019-04-23T03:48:45.353Z,12.67
2019-04-23T03:50:52.823Z,12.17
2019-04-23T03:56:12.454Z,6.00
2019-04-23T04:01:11.970Z,9.57
2019-04-23T04:04:03.785Z,9.50
2019-04-23T04:06:20.897Z,6.60
2019-04-23T04:08:36.023Z,4.77
2019-04-23T04:11:11.399Z,4.90
2019-04-23T04:19:01.700Z,17.03
2019-04-23T04:21:16.158Z,16.83
2019-04-23T04:23:43.061Z,18.00
2019-04-23T04:26:17.271Z,23.23
2019-04-23T04:31:30.973Z,13.67
2019-04-23T04:36:20.985Z,15.70
2019-04-23T04:38:56.698Z,12.40
2019-04-23T04:41:24.009Z,15.87
2019-04-23T04:46:21.178Z,12.47
2019-04-23T04:48:49.285Z,16.97
2019-04-23T04:56:18.909Z,6.80
2019-04-23T04:59:05.298Z,9.23
2019-04-23T05:03:32.770Z,18.33
2019-04-23T05:06:44.596Z,10.33
2019-04-23T05:08:56.070Z,3.80
2019-04-23T05:11:28.925Z,3.33
2019-04-23T05:13:49.832Z,3.10
2019-04-23T05:16:27.701Z,4.80
2019-04-23T05:21:38.898Z,3.37
2019-04-23T05:24:14.853Z,4.50
2019-04-23T05:31:28.055Z,3.10
2019-04-23T05:34:02.586Z,3.10
2019-04-23T05:36:49.892Z,3.43
2019-04-23T05:39:12.247Z,3.30
2019-04-23T05:49:06.202Z,3.43
2019-04-23T05:51:44.561Z,3.93
2019-04-23T05:54:06.494Z,3.47
2019-04-23T05:56:38.219Z,4.40
2019-04-23T05:59:14.705Z,3.43
2019-04-23T06:04:17.701Z,4.30
2019-04-23T06:11:56.958Z,3.57
2019-04-23T06:14:17.396Z,3.50
2019-04-23T06:16:41.862Z,3.80
2019-04-23T06:19:14.363Z,3.30
2019-04-23T06:21:52.900Z,3.20
2019-04-23T06:29:20.986Z,3.93
2019-04-23T06:31:48.835Z,3.43
2019-04-23T06:34:20.353Z,3.90
2019-04-23T06:36:44.460Z,7.40
2019-04-23T06:39:24.362Z,3.93
2019-04-23T06:41:49.883Z,4.10
2019-04-23T06:49:27.944Z,4.53
2019-04-23T06:52:02.349Z,5.10
2019-04-23T06:54:27.875Z,4.53
2019-04-23T06:56:58.689Z,3.23
2019-04-23T06:59:27.347Z,4.23
2019-04-23T07:01:59.400Z,4.37
2019-04-23T07:04:25.889Z,3.90
2019-04-23T07:07:15.121Z,3.93
2019-04-23T07:09:40.113Z,5.13
2019-04-23T07:12:08.670Z,4.10
2019-04-23T07:14:30.785Z,3.70
2019-04-23T07:16:58.913Z,3.90
2019-04-23T07:19:44.967Z,3.83
2019-04-23T07:22:08.131Z,2.63
2019-04-23T07:24:32.857Z,2.77
2019-04-23T07:26:54.873Z,2.50
2019-04-23T07:29:54.315Z,2.50
2019-04-23T07:32:11.835Z,2.77
2019-04-23T07:34:28.229Z,2.53
2019-04-23T07:37:00.286Z,3.17
2019-04-23T07:39:45.703Z,6.43
2019-04-23T07:42:16.856Z,2.77
2019-04-23T07:44:42.394Z,3.13
2019-04-23T07:50:04.980Z,2.97
2019-04-23T07:52:23.950Z,2.90
2019-04-23T07:54:54.371Z,3.00
2019-04-23T07:57:18.719Z,2.90
2019-04-23T07:59:56.253Z,3.53
2019-04-23T08:02:28.954Z,2.83
2019-04-23T08:05:03.562Z,2.50
2019-04-23T08:07:23.119Z,2.80
2019-04-23T08:09:53.253Z,2.93
2019-04-23T08:12:25.555Z,3.37
2019-04-23T08:14:59.949Z,2.90
2019-04-23T08:17:22.516Z,3.30
2019-04-23T08:22:28.599Z,2.70
2019-04-23T08:25:12.873Z,3.00
2019-04-23T08:30:00.177Z,2.97
2019-04-23T08:32:45.160Z,3.20
2019-04-23T08:37:46.769Z,3.37
2019-04-23T08:40:04.376Z,3.23
2019-04-23T08:48:16.629Z,3.33
2019-04-23T08:50:40.650Z,3.40
2019-04-23T08:53:26.351Z,3.63
2019-04-23T08:55:44.540Z,3.80
2019-04-23T08:58:13.393Z,3.80
2019-04-23T09:00:51.917Z,3.73
2019-04-23T09:03:19.987Z,4.27
2019-04-23T09:06:00.750Z,9.00
2019-04-23T09:10:49.615Z,4.47
2019-04-23T09:13:39.981Z,4.47
2019-04-23T09:15:49.923Z,4.80
2019-04-23T09:18:23.021Z,4.80
2019-04-23T09:20:48.132Z,5.00
2019-04-23T09:23:29.496Z,4.90
2019-04-23T09:25:54.172Z,4.83
2019-04-23T09:28:34.603Z,4.40
2019-04-23T09:31:06.145Z,5.30
2019-04-23T09:36:22.471Z,5.27
2019-04-23T09:38:59.866Z,5.00
2019-04-23T09:41:28.065Z,4.33
2019-04-23T09:46:44.057Z,4.70
2019-04-23T09:49:17.725Z,4.43
2019-04-23T09:51:46.981Z,4.53
2019-04-23T09:56:50.945Z,5.07
2019-04-23T09:59:33.864Z,5.33
2019-04-23T10:01:49.771Z,5.90
2019-04-23T10:04:00.312Z,5.07
2019-04-23T10:06:24.967Z,5.57
2019-04-23T10:08:54.445Z,5.27
2019-04-23T10:11:22.259Z,5.30
2019-04-23T10:13:52.762Z,5.53
2019-04-23T10:16:25.596Z,5.97
2019-04-23T10:18:53.303Z,5.97
2019-04-23T10:21:23.604Z,5.57
2019-04-23T10:23:52.808Z,5.40
2019-04-23T10:26:21.937Z,5.17
2019-04-23T10:28:59.987Z,5.17
2019-04-23T10:31:28.976Z,5.10
2019-04-23T10:33:58.066Z,5.30
2019-04-23T10:36:32.152Z,5.13
2019-04-23T10:39:07.353Z,5.43
2019-04-23T10:41:32.730Z,5.00
2019-04-23T10:44:04.950Z,5.77
2019-04-23T10:46:58.283Z,5.33
2019-04-23T10:52:20.199Z,5.27
2019-04-23T10:57:11.264Z,5.20
2019-04-23T11:04:54.343Z,5.87
2019-04-23T11:07:30.792Z,5.97
2019-04-23T11:15:08.616Z,5.67
2019-04-23T11:17:45.517Z,6.10
2019-04-23T11:20:07.462Z,6.53
2019-04-23T11:22:43.869Z,6.33
2019-04-23T11:27:32.955Z,6.30
2019-04-23T11:30:10.781Z,7.30
2019-04-23T11:32:46.725Z,8.47
2019-04-23T11:35:17.563Z,7.80
2019-04-23T11:40:08.609Z,7.40
2019-04-23T11:42:42.590Z,7.40
2019-04-23T11:45:17.138Z,8.20
2019-04-23T11:50:32.729Z,7.67
2019-04-23T11:55:28.670Z,7.83
2019-04-23T11:57:52.572Z,8.10
2019-04-23T12:00:21.196Z,7.87
2019-04-23T12:03:02.532Z,7.93
2019-04-23T12:05:41.526Z,7.87
2019-04-23T12:08:13.433Z,8.13
2019-04-23T12:10:43.033Z,7.73
2019-04-23T12:13:21.460Z,5.33
2019-04-23T12:15:47.896Z,5.30
2019-04-23T12:18:23.095Z,5.13
2019-04-23T12:20:46.288Z,5.40
2019-04-23T12:25:58.650Z,5.20
2019-04-23T12:28:20.597Z,5.67
2019-04-23T12:30:50.761Z,5.60
2019-04-23T12:33:28.114Z,5.23
2019-04-23T12:35:51.959Z,5.37
2019-04-23T12:38:25.483Z,5.10
2019-04-23T12:40:56.307Z,5.67
2019-04-23T12:45:50.456Z,4.50
2019-04-23T12:48:41.321Z,4.77
2019-04-23T12:51:17.477Z,4.70
2019-04-23T12:53:32.222Z,5.13
2019-04-23T12:56:21.914Z,4.53
2019-04-23T12:58:26.977Z,5.07
2019-04-23T13:01:05.590Z,5.00
2019-04-23T13:03:30.209Z,5.00
2019-04-23T13:05:53.050Z,4.90
2019-04-23T13:11:23.718Z,4.87
2019-04-23T13:13:37.596Z,5.70
2019-04-23T13:16:25.343Z,5.03
2019-04-23T13:18:41.435Z,5.27
2019-04-23T13:21:13.566Z,5.63
2019-04-23T13:23:35.975Z,4.90
2019-04-23T13:26:04.495Z,4.33
2019-04-23T13:29:03.110Z,4.80
2019-04-23T13:33:45.481Z,5.37
2019-04-23T13:46:17.997Z,5.40
2019-04-23T13:48:47.030Z,5.53
2019-04-23T13:51:26.012Z,5.30
2019-04-23T13:56:24.776Z,6.83
2019-04-23T13:58:56.443Z,6.20
2019-04-23T14:01:30.916Z,5.53
2019-04-23T14:04:16.615Z,5.83
2019-04-23T14:08:59.853Z,5.47
2019-04-23T14:13:59.774Z,5.67
2019-04-23T14:24:08.346Z,5.93
2019-04-23T14:29:01.190Z,6.10
2019-04-23T14:31:28.000Z,5.43
2019-04-23T14:39:06.175Z,4.93
2019-04-23T14:41:36.257Z,4.43
2019-04-23T14:44:10.468Z,4.40
2019-04-23T14:54:12.857Z,4.23
2019-04-23T14:56:50.174Z,4.33
2019-04-23T15:01:42.891Z,3.97
2019-04-23T15:04:10.953Z,3.50
2019-04-23T15:06:50.794Z,3.73
2019-04-23T15:09:22.866Z,3.90
2019-04-23T15:11:52.777Z,4.63
2019-04-23T15:14:17.640Z,3.50
2019-04-23T15:16:54.466Z,3.87
2019-04-23T15:19:44.582Z,3.20
2019-04-23T15:22:04.719Z,3.50
2019-04-23T15:24:27.743Z,3.80
2019-04-23T15:29:13.036Z,11.60
2019-04-23T15:34:23.517Z,7.87
2019-04-23T15:37:14.050Z,7.20
2019-04-23T15:42:08.851Z,8.50
2019-04-23T15:44:27.771Z,6.63
2019-04-23T15:47:01.944Z,8.00
2019-04-23T15:49:35.637Z,8.23
2019-04-23T15:52:06.708Z,9.00
2019-04-23T15:54:36.562Z,12.80
2019-04-23T15:57:07.292Z,13.07
2019-04-23T16:01:42.661Z,10.87
2019-04-23T16:04:07.258Z,12.60
2019-04-23T16:06:38.517Z,11.33
2019-04-23T16:09:26.161Z,9.00
2019-04-23T16:12:01.510Z,9.93
2019-04-23T16:14:42.484Z,9.53
2019-04-23T16:19:59.651Z,7.37
2019-04-23T16:22:18.985Z,7.43
2019-04-23T16:24:59.845Z,7.60
2019-04-23T16:27:16.916Z,10.93
2019-04-23T16:30:00.249Z,11.50
2019-04-23T16:32:31.423Z,9.93
2019-04-23T16:35:08.867Z,12.00
2019-04-23T16:37:26.582Z,10.10
2019-04-23T16:40:03.481Z,12.50
2019-04-23T16:42:29.893Z,8.47
2019-04-23T16:45:12.398Z,8.77
2019-04-23T18:18:33.433Z,8.70
2019-04-23T18:21:23.258Z,8.93
2019-04-23T18:24:13.444Z,9.33
2019-04-23T18:26:51.534Z,8.93
2019-04-23T18:29:45.598Z,9.87
2019-04-23T18:32:16.288Z,9.67
2019-04-23T18:35:02.415Z,8.70
2019-04-23T18:37:17.935Z,8.73
2019-04-23T18:39:48.540Z,8.87
2019-04-23T18:47:29.397Z,8.60
2019-04-23T18:49:48.062Z,7.50
2019-04-23T18:52:25.990Z,8.23
2019-04-23T18:54:48.850Z,9.00
2019-04-23T19:02:39.407Z,9.73
2019-04-23T19:05:08.616Z,8.37
2019-04-23T19:07:42.390Z,9.40
2019-04-23T19:10:28.516Z,9.63
2019-04-23T19:15:36.517Z,7.97
2019-04-23T19:17:56.372Z,8.13
2019-04-23T19:23:09.505Z,7.53
2019-04-23T19:25:31.094Z,8.10
2019-04-23T19:28:23.974Z,8.97
2019-04-23T19:30:46.827Z,7.30
2019-04-23T19:40:53.508Z,6.60
2019-04-23T19:43:19.420Z,7.80
2019-04-23T19:45:55.753Z,7.37
2019-04-23T19:53:26.172Z,7.03
2019-04-23T19:56:04.184Z,6.73
2019-04-23T19:58:30.005Z,6.70
2019-04-23T20:05:59.506Z,7.43
2019-04-23T20:08:34.330Z,6.50
2019-04-23T20:10:57.436Z,7.37
2019-04-23T20:13:31.608Z,6.73
2019-04-23T20:16:05.332Z,6.77
2019-04-23T20:18:40.220Z,6.20
2019-04-23T20:20:59.260Z,7.13
2019-04-23T20:23:43.319Z,6.23
2019-04-23T20:32:31.312Z,6.60
2019-04-23T20:34:25.862Z,7.07
2019-04-23T20:36:33.767Z,7.23
2019-04-23T20:39:16.450Z,7.40
2019-04-23T20:41:58.003Z,8.03
2019-04-23T20:44:30.284Z,6.87
2019-04-23T20:46:58.275Z,7.93
2019-04-23T20:49:21.413Z,7.63
2019-04-23T20:51:54.937Z,6.87
2019-04-23T20:54:22.379Z,8.27
2019-04-23T20:57:10.755Z,8.13
2019-04-23T20:59:44.190Z,8.33
2019-04-23T21:02:15.130Z,8.57
2019-04-23T21:04:53.180Z,8.53
2019-04-23T21:07:15.984Z,8.37
2019-04-23T21:09:51.467Z,7.40
2019-04-23T21:12:22.890Z,7.27
2019-04-23T21:14:59.705Z,7.23
2019-04-23T21:17:14.648Z,7.30
2019-04-23T21:20:01.420Z,6.60
2019-04-23T21:24:46.455Z,6.70
2019-04-23T21:27:29.846Z,7.10
2019-04-23T21:29:58.787Z,7.17
2019-04-23T21:32:35.372Z,7.53
2019-04-23T21:35:04.912Z,7.30
2019-04-23T21:37:35.644Z,7.00
2019-04-23T21:42:41.088Z,6.80
2019-04-23T21:44:59.028Z,6.40
2019-04-23T21:50:14.114Z,7.07
2019-04-23T21:52:33.842Z,6.80
2019-04-23T21:55:03.635Z,6.53
2019-04-23T21:57:46.324Z,7.63
2019-04-23T22:02:52.085Z,6.03
2019-04-23T22:05:12.127Z,4.80
2019-04-23T22:08:01.717Z,4.87
2019-04-23T22:10:15.361Z,4.40
2019-04-23T22:12:46.816Z,4.40
2019-04-23T22:15:04.738Z,4.50
2019-04-23T22:17:44.634Z,4.30
2019-04-23T22:20:19.590Z,4.27
2019-04-23T22:22:56.339Z,4.50
2019-04-23T22:25:03.996Z,4.80
2019-04-23T22:27:49.698Z,4.80
2019-04-23T22:30:16.386Z,5.30
2019-04-23T22:33:00.976Z,4.43
2019-04-23T22:35:10.655Z,6.53
2019-04-23T22:37:54.645Z,5.80
2019-04-23T22:40:11.479Z,5.27
2019-04-23T22:43:08.986Z,3.90
2019-04-23T22:45:16.212Z,3.87
2019-04-23T22:47:55.666Z,4.00
2019-04-23T22:50:18.927Z,3.53
2019-04-23T22:52:53.988Z,6.97
2019-04-23T22:55:12.681Z,10.93
2019-04-23T23:03:21.201Z,5.57
2019-04-23T23:06:12.788Z,5.33
2019-04-23T23:10:50.772Z,5.40
2019-04-23T23:13:21.825Z,6.07
2019-04-23T23:15:53.326Z,6.17
2019-04-23T23:23:24.253Z,5.50
2019-04-23T23:25:59.182Z,5.50
2019-04-23T23:28:26.920Z,5.53
2019-04-23T23:31:02.032Z,8.07
2019-04-23T23:33:24.513Z,8.30
2019-04-23T23:35:58.913Z,7.60
2019-04-23T23:38:33.254Z,7.20
2019-04-23T23:41:03.707Z,8.00
2019-04-23T23:46:17.269Z,6.20
2019-04-23T23:48:28.041Z,5.63
2019-04-23T23:51:17.031Z,5.93
2019-04-23T23:53:40.200Z,6.33
2019-04-23T23:56:10.911Z,6.10
2019-04-23T23:58:48.232Z,5.80
